createdAt,value
2023-01-02T08:48:00.604Z,8.77
2023-01-02T08:50:48.159Z,6.63
2023-01-02T08:53:16.215Z,9.50
2023-01-02T08:55:44.278Z,9.77
2023-01-02T09:02:16.433Z,9.27
2023-01-02T09:04:44.662Z,9.30
2023-01-02T09:07:12.689Z,11.77
2023-01-02T09:09:40.787Z,8.87
2023-01-02T09:12:08.997Z,13.23
2023-01-02T09:14:37.172Z,19.37
2023-01-02T09:17:05.275Z,15.97
2023-01-02T09:19:34.861Z,8.63
2023-01-02T09:22:03.127Z,12.23
2023-01-02T09:24:31.203Z,8.27
2023-01-02T09:26:59.357Z,8.07
2023-01-02T09:29:27.500Z,7.07
2023-01-02T09:31:55.573Z,5.40
2023-01-02T09:34:23.692Z,7.50
2023-01-02T09:36:53.458Z,8.33
2023-01-02T09:39:24.499Z,8.90
2023-01-02T09:41:59.943Z,6.50
2023-01-02T09:44:33.085Z,18.60
2023-01-02T09:47:05.160Z,9.20
2023-01-02T09:49:36.200Z,7.20
2023-01-02T09:52:08.232Z,10.47
2023-01-02T09:54:36.300Z,5.60
2023-01-02T09:57:34.440Z,8.80
2023-01-02T10:00:06.649Z,8.07
2023-01-02T10:02:48.642Z,7.50
2023-01-02T10:05:47.871Z,9.67
2023-01-02T10:08:31.952Z,5.73
2023-01-02T10:11:10.126Z,7.30
2023-01-02T10:16:36.853Z,6.93
2023-01-02T10:19:11.104Z,6.27
2023-01-02T10:21:40.543Z,5.50
2023-01-02T10:24:17.787Z,4.40
2023-01-02T10:26:50.576Z,7.13
2023-01-02T10:29:26.422Z,6.13
2023-01-02T10:40:56.077Z,6.00
2023-01-02T10:43:24.217Z,6.60
2023-01-02T10:45:52.291Z,5.90
2023-01-02T10:48:22.997Z,6.20
2023-01-02T10:50:55.585Z,6.60
2023-01-02T10:53:32.469Z,6.80
2023-01-02T10:56:05.173Z,6.07
2023-01-02T10:58:35.479Z,3.20
2023-01-02T11:01:08.470Z,6.23
2023-01-02T11:03:36.653Z,7.10
2023-01-02T11:06:25.778Z,5.40
2023-01-02T11:08:58.173Z,9.87
2023-01-02T11:11:30.030Z,5.23
2023-01-02T11:14:06.935Z,7.27
2023-01-02T11:16:39.852Z,8.33
2023-01-02T11:19:08.906Z,6.47
2023-01-02T11:21:40.052Z,5.73
2023-01-02T11:24:16.315Z,6.30
2023-01-02T11:26:47.388Z,5.63
2023-01-02T11:29:19.411Z,4.43
2023-01-02T11:31:57.419Z,3.97
2023-01-02T11:34:32.612Z,4.67
2023-01-02T11:37:15.455Z,5.10
2023-01-02T11:39:57.537Z,3.63
2023-01-02T11:42:49.255Z,7.00
2023-01-02T11:45:18.800Z,5.27
2023-01-02T11:47:50.219Z,6.70
2023-01-02T11:50:23.557Z,6.93
2023-01-02T11:52:57.418Z,4.07
2023-01-02T11:55:40.598Z,4.07
2023-01-02T11:58:18.940Z,3.80
2023-01-02T12:00:50.613Z,4.13
2023-01-02T12:03:23.424Z,4.37
2023-01-02T12:06:03.378Z,4.07
2023-01-02T12:08:50.993Z,3.43
2023-01-02T12:11:29.992Z,9.77
2023-01-02T12:14:13.836Z,3.17
2023-01-02T12:16:52.205Z,6.80
2023-01-02T12:19:59.284Z,5.63
2023-01-02T12:23:02.624Z,5.93
2023-01-02T12:25:48.977Z,3.10
2023-01-02T12:28:54.982Z,4.37
2023-01-02T12:31:39.290Z,5.00
2023-01-02T12:34:19.067Z,4.10
2023-01-02T12:36:57.086Z,2.83
2023-01-02T12:39:50.793Z,2.43
2023-01-02T12:42:38.369Z,5.03
2023-01-02T12:45:14.498Z,4.30
2023-01-02T12:47:57.664Z,5.20
2023-01-02T12:50:46.885Z,3.47
2023-01-02T12:53:27.275Z,2.83
2023-01-02T12:56:08.142Z,2.33
2023-01-02T12:58:49.138Z,4.23
2023-01-02T13:01:22.434Z,5.07
2023-01-02T13:04:13.767Z,6.93
2023-01-02T13:06:47.955Z,3.67
2023-01-02T13:09:23.390Z,4.47
2023-01-02T13:11:57.673Z,4.17
2023-01-02T13:14:31.432Z,3.00
2023-01-02T13:17:09.222Z,2.27
2023-01-02T13:19:44.568Z,5.27
2023-01-02T13:22:21.344Z,2.20
2023-01-02T13:24:50.863Z,3.23
2023-01-02T13:27:19.156Z,4.57
2023-01-02T13:29:47.554Z,3.40
2023-01-02T13:32:26.806Z,3.80
2023-01-02T13:34:57.552Z,1.77
2023-01-02T13:37:28.215Z,2.80
2023-01-02T13:39:58.578Z,2.57
2023-01-02T13:42:47.327Z,4.27
2023-01-02T13:45:18.234Z,5.33
2023-01-02T13:47:52.263Z,6.50
2023-01-02T13:50:26.264Z,3.30
2023-01-02T13:53:08.232Z,2.97
2023-01-02T13:55:37.322Z,3.30
2023-01-02T13:58:37.585Z,3.00
2023-01-02T14:01:27.966Z,3.50
2023-01-02T14:04:29.217Z,2.97
2023-01-02T14:07:39.147Z,2.27
2023-01-02T14:10:34.825Z,2.87
2023-01-02T14:13:13.273Z,4.80
2023-01-02T14:16:02.976Z,3.07
2023-01-02T14:43:38.620Z,8.60
2023-01-02T14:46:12.282Z,8.03
2023-01-02T14:48:49.746Z,8.07
2023-01-02T14:51:23.186Z,7.63
2023-01-02T14:53:55.555Z,6.77
2023-01-02T14:56:28.028Z,6.07
2023-01-02T14:58:59.023Z,5.00
2023-01-02T15:01:43.474Z,4.73
2023-01-02T15:04:21.419Z,6.57
2023-01-02T15:09:30.733Z,5.57
2023-01-02T15:12:17.885Z,4.53
2023-01-02T15:20:19.773Z,3.47
2023-01-02T15:22:48.661Z,5.87
2023-01-02T15:27:44.032Z,4.27
2023-01-02T15:30:24.448Z,4.57
2023-01-02T15:32:52.507Z,6.83
2023-01-02T15:35:23.538Z,6.13
